createdAt,value
2023-05-06T00:00:31.417Z,0.00
2023-05-06T00:02:57.696Z,0.10
2023-05-06T00:05:24.124Z,0.00
2023-05-06T00:07:50.588Z,0.10
2023-05-06T00:10:16.991Z,0.00
2023-05-06T00:12:43.494Z,0.00
2023-05-06T00:15:10.228Z,0.10
2023-05-06T00:17:37.044Z,0.40
2023-05-06T00:20:03.755Z,0.77
2023-05-06T00:22:32.755Z,0.52
2023-05-06T00:24:58.974Z,0.00
2023-05-06T00:27:25.284Z,0.10
2023-05-06T00:29:51.523Z,0.10
2023-05-06T00:32:17.853Z,0.08
2023-05-06T00:34:44.191Z,0.10
2023-05-06T00:37:11.008Z,0.10
2023-05-06T00:39:37.305Z,0.10
2023-05-06T00:42:03.647Z,0.03
2023-05-06T00:44:30.166Z,0.10
2023-05-06T00:46:57.001Z,0.40
2023-05-06T00:49:26.251Z,0.00
2023-05-06T00:51:53.710Z,0.13
2023-05-06T00:54:20.185Z,0.10
2023-05-06T00:56:46.707Z,0.08
2023-05-06T00:59:12.982Z,0.20
2023-05-06T01:01:39.491Z,0.10
2023-05-06T01:04:06.806Z,0.17
2023-05-06T01:06:45.322Z,0.10
2023-05-06T01:09:19.912Z,0.30
2023-05-06T01:11:50.733Z,0.10
2023-05-06T01:14:24.799Z,0.00
2023-05-06T01:16:53.702Z,0.00
2023-05-06T01:19:34.788Z,0.20
2023-05-06T01:22:01.394Z,0.10
2023-05-06T01:24:41.176Z,0.10
2023-05-06T01:27:07.887Z,0.00
2023-05-06T01:29:35.447Z,0.10
2023-05-06T01:32:19.031Z,0.00
2023-05-06T01:34:49.613Z,0.10
2023-05-06T01:37:25.008Z,0.10
2023-05-06T01:39:54.414Z,0.00
2023-05-06T01:42:21.308Z,0.25
2023-05-06T01:44:48.468Z,0.10
2023-05-06T01:47:15.241Z,0.10
2023-05-06T01:49:41.768Z,0.13
2023-05-06T01:52:08.092Z,0.32
2023-05-06T01:54:34.324Z,0.10
2023-05-06T01:57:00.590Z,7.70
2023-05-06T01:59:27.991Z,33.17
2023-05-06T02:01:55.763Z,12.63
2023-05-06T02:04:22.107Z,1.50
2023-05-06T02:06:48.473Z,0.70
2023-05-06T02:09:17.423Z,0.00
2023-05-06T02:11:43.861Z,0.00
2023-05-06T02:14:10.163Z,0.00
2023-05-06T02:16:36.542Z,0.32
2023-05-06T02:19:03.031Z,0.47
2023-05-06T02:21:29.318Z,0.00
2023-05-06T02:23:55.560Z,0.00
2023-05-06T02:26:21.889Z,0.10
2023-05-06T02:28:48.249Z,0.10
2023-05-06T02:31:15.764Z,7.30
2023-05-06T02:33:42.453Z,1.85
2023-05-06T02:36:08.784Z,0.13
2023-05-06T02:38:35.273Z,0.00
2023-05-06T02:41:01.622Z,0.00
2023-05-06T02:43:27.912Z,0.17
2023-05-06T02:45:54.229Z,0.00
2023-05-06T02:48:20.547Z,0.00
2023-05-06T02:50:46.814Z,0.03
2023-05-06T02:53:15.608Z,2.38
2023-05-06T02:55:43.465Z,0.20
2023-05-06T02:58:10.003Z,0.00
2023-05-06T03:00:36.444Z,0.22
2023-05-06T03:03:02.779Z,0.52
2023-05-06T03:05:29.094Z,0.52
2023-05-06T03:07:56.238Z,0.10
2023-05-06T03:10:22.625Z,4.50
2023-05-06T03:12:48.964Z,0.80
2023-05-06T03:15:15.226Z,0.00
2023-05-06T03:17:41.515Z,0.73
2023-05-06T03:20:08.656Z,3.38
2023-05-06T03:22:35.036Z,6.72
2023-05-06T03:25:01.317Z,5.97
2023-05-06T03:27:27.596Z,7.30
2023-05-06T03:29:53.875Z,7.22
2023-05-06T03:32:20.947Z,1.77
2023-05-06T03:34:47.225Z,4.30
2023-05-06T03:37:13.495Z,3.22
2023-05-06T03:39:39.773Z,0.13
2023-05-06T03:42:07.854Z,0.00
2023-05-06T03:44:37.484Z,0.00
2023-05-06T03:47:03.761Z,0.00
2023-05-06T03:49:30.113Z,0.00
2023-05-06T03:51:56.438Z,0.00
2023-05-06T03:54:25.920Z,0.38
2023-05-06T03:56:52.278Z,0.00
2023-05-06T03:59:18.588Z,0.00
2023-05-06T04:01:44.907Z,0.25
2023-05-06T04:04:11.286Z,0.00
2023-05-06T04:06:37.642Z,0.03
2023-05-06T04:09:06.189Z,0.10
2023-05-06T04:11:32.448Z,0.15
2023-05-06T04:13:58.699Z,0.85
2023-05-06T04:16:25.112Z,0.10
2023-05-06T04:18:51.775Z,0.40
2023-05-06T04:21:18.420Z,0.25
2023-05-06T04:23:44.768Z,0.10
2023-05-06T04:26:11.323Z,0.03
2023-05-06T04:28:37.683Z,0.35
2023-05-06T04:31:07.352Z,0.05
2023-05-06T04:33:33.765Z,0.50
2023-05-06T04:36:00.381Z,2.78
2023-05-06T04:38:30.409Z,7.13
2023-05-06T04:40:56.815Z,9.52
2023-05-06T04:43:23.066Z,3.40
2023-05-06T04:45:49.691Z,10.52
2023-05-06T04:48:17.477Z,17.02
2023-05-06T04:50:43.999Z,6.00
2023-05-06T04:53:16.852Z,4.30
2023-05-06T04:55:43.485Z,3.28
2023-05-06T04:58:09.986Z,6.57
2023-05-06T05:00:36.270Z,10.63
2023-05-06T05:03:02.624Z,5.35
2023-05-06T05:05:28.922Z,1.48
2023-05-06T05:07:55.483Z,0.28
2023-05-06T05:10:21.896Z,0.75
2023-05-06T05:12:48.142Z,0.00
2023-05-06T05:15:14.601Z,2.25
2023-05-06T05:17:40.849Z,4.55
2023-05-06T05:20:07.533Z,0.65
2023-05-06T05:22:33.834Z,0.00
2023-05-06T05:25:00.371Z,0.00
2023-05-06T05:27:27.177Z,0.10
2023-05-06T05:29:53.876Z,0.00
2023-05-06T05:32:21.647Z,0.00
2023-05-06T05:34:47.992Z,0.00
2023-05-06T05:37:14.294Z,0.00
2023-05-06T05:39:40.655Z,0.00
2023-05-06T05:42:06.935Z,0.00
2023-05-06T05:44:33.392Z,0.03
2023-05-06T05:46:59.729Z,0.00
2023-05-06T05:49:26.069Z,0.10
2023-05-06T05:51:52.385Z,0.00
2023-05-06T05:54:18.624Z,0.10
2023-05-06T05:56:44.921Z,0.20
2023-05-06T05:59:13.336Z,0.00
2023-05-06T06:01:40.686Z,0.10
2023-05-06T06:04:07.104Z,0.10
2023-05-06T06:06:33.557Z,0.20
2023-05-06T06:08:59.795Z,0.00
2023-05-06T06:11:26.980Z,0.00
2023-05-06T06:13:53.321Z,0.20
2023-05-06T06:16:19.619Z,0.00
2023-05-06T06:18:45.918Z,0.00
2023-05-06T06:21:12.378Z,0.20
2023-05-06T06:23:38.673Z,0.13
2023-05-06T06:26:05.049Z,0.10
2023-05-06T06:28:31.469Z,0.05
2023-05-06T06:30:57.894Z,0.10
2023-05-06T06:33:24.176Z,0.10
2023-05-06T06:35:50.510Z,0.00
2023-05-06T06:38:16.822Z,0.35
2023-05-06T06:40:43.403Z,0.00
2023-05-06T06:43:09.793Z,0.00
2023-05-06T06:45:36.440Z,0.10
2023-05-06T06:48:02.767Z,0.00
2023-05-06T06:50:29.220Z,0.13
2023-05-06T06:52:55.508Z,0.10
2023-05-06T06:55:21.800Z,0.13
2023-05-06T06:57:48.351Z,0.10
2023-05-06T07:00:14.783Z,0.10
2023-05-06T07:02:41.254Z,0.10
2023-05-06T07:05:08.018Z,0.15
2023-05-06T07:07:34.476Z,0.00
2023-05-06T07:10:00.887Z,0.20
2023-05-06T07:12:27.133Z,0.00
2023-05-06T07:14:53.509Z,0.10
2023-05-06T07:17:19.998Z,0.10
2023-05-06T07:19:46.306Z,0.00
2023-05-06T07:22:12.633Z,0.20
2023-05-06T07:24:38.924Z,0.00
2023-05-06T07:27:08.022Z,0.13
2023-05-06T07:29:36.628Z,0.03
2023-05-06T07:32:03.275Z,0.20
2023-05-06T07:34:29.524Z,0.10
2023-05-06T07:36:55.870Z,0.10
2023-05-06T07:39:24.581Z,0.20
2023-05-06T07:41:54.830Z,0.20
2023-05-06T07:44:21.225Z,0.17
2023-05-06T07:46:48.184Z,0.10
2023-05-06T07:49:14.485Z,0.20
2023-05-06T07:51:44.033Z,0.15
2023-05-06T07:54:11.196Z,0.10
2023-05-06T07:56:37.510Z,0.10
2023-05-06T07:59:06.636Z,0.35
2023-05-06T08:01:33.029Z,0.10
2023-05-06T08:04:00.621Z,0.10
2023-05-06T08:06:27.113Z,0.17
2023-05-06T08:08:53.387Z,0.20
2023-05-06T08:11:19.689Z,0.10
2023-05-06T08:13:47.132Z,0.20
2023-05-06T08:16:13.564Z,0.20
2023-05-06T08:18:39.885Z,0.20
2023-05-06T08:21:06.605Z,0.20
2023-05-06T08:23:32.948Z,0.10
2023-05-06T08:25:59.207Z,0.20
2023-05-06T08:28:25.920Z,0.20
2023-05-06T08:30:52.299Z,0.13
2023-05-06T08:33:18.794Z,0.20
2023-05-06T08:35:45.539Z,0.15
2023-05-06T08:38:11.806Z,0.20
2023-05-06T08:40:42.876Z,0.55
2023-05-06T08:43:14.655Z,0.20
2023-05-06T08:48:07.876Z,0.20
2023-05-06T08:50:37.274Z,0.20
2023-05-06T08:53:03.733Z,0.20
2023-05-06T08:55:30.796Z,0.17
2023-05-06T08:57:57.431Z,0.13
2023-05-06T09:00:23.910Z,0.20
2023-05-06T09:02:53.432Z,0.10
2023-05-06T09:05:19.816Z,0.13
2023-05-06T09:07:47.235Z,0.28
2023-05-06T09:10:14.182Z,0.25
2023-05-06T09:12:40.558Z,0.47
2023-05-06T09:15:07.362Z,0.40
2023-05-06T09:17:33.786Z,0.20
2023-05-06T09:20:00.283Z,0.20
2023-05-06T09:22:27.806Z,0.17
2023-05-06T09:24:57.400Z,0.13
2023-05-06T09:27:33.759Z,0.20
2023-05-06T09:30:00.489Z,0.43
2023-05-06T09:32:26.738Z,0.25
2023-05-06T09:34:53.326Z,0.20
2023-05-06T09:37:25.300Z,0.38
2023-05-06T09:39:54.024Z,0.20
2023-05-06T09:42:21.787Z,0.10
2023-05-06T09:44:48.139Z,0.25
2023-05-06T09:47:14.776Z,0.17
2023-05-06T09:49:41.557Z,0.20
2023-05-06T09:52:08.053Z,0.20
2023-05-06T09:54:34.844Z,0.13
2023-05-06T09:57:02.468Z,0.22
2023-05-06T09:59:29.272Z,0.20
2023-05-06T10:01:55.636Z,0.20
2023-05-06T10:04:25.396Z,0.22
2023-05-06T10:06:54.859Z,0.22
2023-05-06T10:09:23.714Z,0.20
2023-05-06T10:11:50.932Z,0.30
2023-05-06T10:14:17.616Z,0.20
2023-05-06T10:16:44.452Z,0.20
2023-05-06T10:19:11.813Z,0.30
2023-05-06T10:21:40.476Z,0.47
2023-05-06T10:24:08.901Z,0.20
2023-05-06T10:26:38.930Z,0.20
2023-05-06T10:29:08.687Z,0.20
2023-05-06T10:31:35.202Z,0.20
2023-05-06T10:34:04.785Z,0.20
2023-05-06T10:36:33.465Z,0.20
2023-05-06T10:39:01.592Z,0.10
2023-05-06T10:41:28.512Z,0.10
2023-05-06T10:43:59.863Z,0.20
2023-05-06T10:46:27.708Z,0.10
2023-05-06T10:49:06.329Z,0.20
2023-05-06T10:51:33.076Z,0.30
2023-05-06T10:54:02.208Z,0.10
2023-05-06T10:56:30.048Z,0.22
2023-05-06T10:58:56.424Z,0.13
2023-05-06T11:01:25.811Z,0.22
2023-05-06T11:03:52.806Z,0.10
2023-05-06T11:06:34.276Z,0.25
2023-05-06T11:09:01.839Z,0.20
2023-05-06T11:11:57.561Z,0.10
2023-05-06T11:14:27.179Z,0.20
2023-05-06T11:16:54.167Z,0.20
2023-05-06T11:19:24.308Z,0.30
2023-05-06T11:21:51.380Z,0.40
2023-05-06T11:24:25.298Z,0.13
2023-05-06T11:26:52.164Z,0.40
2023-05-06T11:29:18.757Z,0.32
2023-05-06T11:31:45.650Z,0.20
2023-05-06T11:34:16.020Z,0.20
2023-05-06T11:36:46.040Z,0.20
2023-05-06T11:39:12.433Z,0.20
2023-05-06T11:41:39.843Z,0.20
2023-05-06T11:44:06.153Z,0.20
2023-05-06T11:46:33.445Z,0.25
2023-05-06T11:49:00.038Z,0.20
2023-05-06T11:51:26.818Z,0.20
2023-05-06T11:54:05.831Z,0.10
2023-05-06T11:56:42.641Z,0.20
2023-05-06T11:59:08.993Z,0.40
2023-05-06T12:01:35.368Z,0.20
2023-05-06T12:04:01.911Z,0.20
2023-05-06T12:06:46.251Z,0.10
2023-05-06T12:09:12.754Z,0.25
2023-05-06T12:11:46.440Z,0.22
2023-05-06T12:14:12.824Z,0.20
2023-05-06T12:16:39.497Z,0.40
2023-05-06T12:19:08.169Z,0.20
2023-05-06T12:21:37.440Z,0.20
2023-05-06T12:24:06.835Z,0.20
2023-05-06T12:26:48.799Z,0.20
2023-05-06T12:29:17.252Z,0.15
2023-05-06T12:31:47.272Z,0.10
2023-05-06T12:34:18.333Z,0.32
2023-05-06T12:36:47.715Z,0.27
2023-05-06T12:39:14.034Z,0.25
2023-05-06T12:41:41.895Z,0.20
2023-05-06T12:44:26.687Z,0.17
2023-05-06T12:46:53.184Z,0.32
2023-05-06T12:49:19.425Z,0.20
2023-05-06T12:51:47.644Z,0.22
2023-05-06T12:54:29.706Z,0.20
2023-05-06T12:56:56.029Z,0.38
2023-05-06T12:59:27.180Z,0.30
2023-05-06T13:01:53.426Z,0.13
2023-05-06T13:04:19.751Z,0.20
2023-05-06T13:06:46.252Z,0.10
2023-05-06T13:09:14.724Z,0.20
2023-05-06T13:11:41.587Z,0.20
2023-05-06T13:14:07.992Z,0.20
2023-05-06T13:16:35.362Z,0.10
2023-05-06T13:19:02.624Z,0.10
2023-05-06T13:21:28.827Z,0.20
2023-05-06T13:23:55.111Z,0.20
2023-05-06T13:26:22.502Z,0.20
2023-05-06T13:28:48.818Z,0.20
2023-05-06T13:31:15.261Z,0.17
2023-05-06T13:33:41.569Z,0.10
2023-05-06T13:36:07.960Z,0.20
2023-05-06T13:38:34.232Z,0.17
2023-05-06T13:41:00.742Z,0.30
2023-05-06T13:43:27.051Z,0.25
2023-05-06T13:45:53.353Z,0.10
2023-05-06T13:48:19.666Z,0.20
2023-05-06T13:50:46.415Z,0.15
2023-05-06T13:53:15.513Z,0.17
2023-05-06T13:55:42.647Z,0.10
2023-05-06T13:58:09.211Z,0.10
2023-05-06T14:00:36.139Z,0.13
2023-05-06T14:03:02.622Z,0.10
2023-05-06T14:05:29.153Z,0.10
2023-05-06T14:07:55.578Z,0.20
2023-05-06T14:10:21.857Z,0.28
2023-05-06T14:12:48.277Z,0.20
2023-05-06T14:15:17.756Z,0.10
2023-05-06T14:17:46.309Z,0.20
2023-05-06T14:20:12.616Z,0.10
2023-05-06T14:22:41.851Z,0.30
2023-05-06T14:25:08.866Z,0.13
2023-05-06T14:27:36.011Z,0.10
2023-05-06T14:30:08.272Z,0.20
2023-05-06T14:32:35.687Z,0.10
2023-05-06T14:35:02.084Z,0.15
2023-05-06T14:37:28.377Z,0.20
2023-05-06T14:39:54.688Z,0.17
2023-05-06T14:42:21.054Z,0.32
2023-05-06T14:44:53.313Z,0.40
2023-05-06T14:47:19.566Z,0.20
2023-05-06T14:49:45.966Z,0.10
2023-05-06T14:52:12.780Z,0.17
2023-05-06T14:54:44.752Z,1.23
2023-05-06T14:57:11.444Z,0.13
2023-05-06T14:59:38.271Z,0.15
2023-05-06T15:02:06.830Z,0.90
2023-05-06T15:04:33.059Z,0.10
2023-05-06T15:06:59.354Z,0.20
2023-05-06T15:09:26.181Z,0.20
2023-05-06T15:11:52.604Z,0.38
2023-05-06T15:14:18.903Z,0.20
2023-05-06T15:16:45.746Z,0.10
2023-05-06T15:19:12.007Z,0.20
2023-05-06T15:21:38.295Z,0.28
2023-05-06T15:24:04.670Z,0.10
2023-05-06T15:26:31.003Z,0.10
2023-05-06T15:28:57.539Z,0.22
2023-05-06T15:31:24.084Z,0.13
2023-05-06T15:33:50.456Z,0.10
2023-05-06T15:36:16.711Z,0.20
2023-05-06T15:38:49.100Z,0.20
2023-05-06T15:41:15.598Z,0.22
2023-05-06T15:43:41.904Z,0.20
2023-05-06T15:46:08.211Z,0.17
2023-05-06T15:48:34.476Z,0.10
2023-05-06T15:51:00.913Z,0.20
2023-05-06T15:53:28.847Z,0.17
2023-05-06T15:55:58.012Z,0.25
2023-05-06T15:58:30.492Z,0.10
2023-05-06T16:00:56.923Z,0.20
2023-05-06T16:03:23.249Z,0.30
2023-05-06T16:05:49.686Z,0.10
2023-05-06T16:08:15.980Z,0.10
2023-05-06T16:10:44.556Z,0.10
2023-05-06T16:13:11.437Z,0.10
2023-05-06T16:15:37.834Z,1.02
2023-05-06T16:18:04.177Z,0.10
2023-05-06T16:20:32.072Z,0.13
2023-05-06T16:22:58.780Z,0.13
2023-05-06T16:25:25.468Z,0.13
2023-05-06T16:27:51.741Z,0.47
2023-05-06T16:30:18.154Z,0.10
2023-05-06T16:32:44.435Z,0.13
2023-05-06T16:35:10.845Z,0.15
2023-05-06T16:37:37.068Z,0.10
2023-05-06T16:40:04.234Z,0.20
2023-05-06T16:42:30.714Z,0.10
2023-05-06T16:44:56.997Z,0.20
2023-05-06T16:47:24.319Z,0.20
2023-05-06T16:49:50.811Z,0.20
2023-05-06T16:52:17.746Z,0.15
2023-05-06T16:54:44.010Z,0.17
2023-05-06T16:57:10.389Z,0.22
2023-05-06T16:59:36.992Z,0.10
2023-05-06T17:02:04.145Z,0.10
2023-05-06T17:04:30.599Z,0.20
2023-05-06T17:06:57.097Z,0.10
2023-05-06T17:09:23.338Z,0.10
2023-05-06T17:11:49.707Z,0.10
2023-05-06T17:14:15.930Z,0.10
2023-05-06T17:16:47.444Z,0.15
2023-05-06T17:19:13.802Z,0.17
2023-05-06T17:21:42.676Z,0.10
2023-05-06T17:24:08.943Z,0.10
2023-05-06T17:26:35.447Z,0.10
2023-05-06T17:29:01.852Z,0.38
2023-05-06T17:31:28.406Z,0.00
2023-05-06T17:33:54.816Z,0.17
2023-05-06T17:36:21.828Z,0.20
2023-05-06T17:38:48.242Z,0.10
2023-05-06T17:41:15.551Z,0.85
2023-05-06T17:43:43.446Z,0.40
2023-05-06T17:46:09.789Z,0.10
2023-05-06T17:48:36.099Z,0.00
2023-05-06T17:51:02.896Z,0.15
2023-05-06T17:53:29.560Z,0.17
2023-05-06T17:55:55.944Z,0.68
2023-05-06T17:58:22.177Z,0.13
2023-05-06T18:00:48.454Z,0.10
2023-05-06T18:03:15.084Z,0.17
2023-05-06T18:05:41.422Z,0.10
2023-05-06T18:08:11.494Z,0.10
2023-05-06T18:10:37.771Z,0.10
2023-05-06T18:13:04.185Z,0.17
2023-05-06T18:15:30.526Z,0.15
2023-05-06T18:17:57.031Z,0.10
2023-05-06T18:20:23.324Z,0.10
2023-05-06T18:22:49.637Z,0.30
2023-05-06T18:25:15.974Z,0.20
2023-05-06T18:30:30.719Z,0.20
2023-05-06T18:32:57.121Z,0.13
2023-05-06T18:35:23.487Z,0.20
2023-05-06T18:37:49.760Z,0.05
2023-05-06T18:40:16.170Z,0.20
2023-05-06T18:42:44.515Z,0.10
2023-05-06T18:45:11.568Z,0.10
2023-05-06T18:47:40.024Z,0.17
2023-05-06T18:50:07.656Z,0.20
2023-05-06T18:52:35.881Z,0.10
2023-05-06T18:55:04.075Z,0.10
2023-05-06T18:57:30.443Z,0.10
2023-05-06T18:59:56.858Z,0.20
2023-05-06T19:02:23.267Z,0.10
2023-05-06T19:04:49.684Z,0.10
2023-05-06T19:07:16.316Z,0.15
2023-05-06T19:09:43.205Z,0.15
2023-05-06T19:12:09.491Z,0.20
2023-05-06T19:14:35.768Z,0.10
2023-05-06T19:17:02.977Z,0.00
2023-05-06T19:19:29.382Z,0.10
2023-05-06T19:21:55.686Z,0.20
2023-05-06T19:24:21.959Z,0.00
2023-05-06T19:30:16.771Z,0.00
2023-05-06T19:32:44.454Z,0.10
2023-05-06T19:35:11.156Z,0.10
2023-05-06T19:37:38.278Z,0.10
2023-05-06T19:40:05.104Z,0.10
2023-05-06T19:42:31.526Z,0.10
2023-05-06T19:45:06.192Z,0.10
2023-05-06T19:47:32.682Z,0.38
2023-05-06T19:50:01.730Z,0.17
2023-05-06T19:52:30.468Z,0.00
2023-05-06T19:55:01.498Z,0.10
2023-05-06T19:57:27.858Z,0.03
2023-05-06T19:59:54.519Z,0.05
2023-05-06T20:02:20.829Z,0.20
2023-05-06T20:04:47.159Z,0.10
2023-05-06T20:07:13.868Z,0.10
2023-05-06T20:09:40.142Z,0.15
2023-05-06T20:12:06.591Z,0.10
2023-05-06T20:14:33.296Z,0.10
2023-05-06T20:17:02.424Z,0.20
2023-05-06T20:19:32.023Z,0.15
2023-05-06T20:21:58.409Z,0.20
2023-05-06T20:24:25.441Z,0.10
2023-05-06T20:26:51.678Z,0.10
2023-05-06T20:29:18.049Z,0.10
2023-05-06T20:31:47.884Z,0.10
2023-05-06T20:34:16.348Z,0.10
2023-05-06T20:36:42.951Z,0.20
2023-05-06T20:39:12.283Z,0.00
2023-05-06T20:41:41.041Z,0.10
2023-05-06T20:44:07.546Z,0.00
2023-05-06T20:46:39.300Z,0.30
2023-05-06T20:49:06.355Z,0.08
2023-05-06T20:51:32.682Z,0.10
2023-05-06T20:54:00.384Z,0.25
2023-05-06T20:56:27.719Z,0.10
2023-05-06T20:58:55.722Z,0.28
2023-05-06T21:01:23.028Z,0.10
2023-05-06T21:03:52.335Z,0.00
2023-05-06T21:06:19.332Z,0.10
2023-05-06T21:08:46.199Z,0.20
2023-05-06T21:11:12.800Z,0.30
2023-05-06T21:13:39.468Z,0.85
2023-05-06T21:16:05.844Z,0.10
2023-05-06T21:18:32.246Z,0.10
2023-05-06T21:20:59.592Z,0.10
2023-05-06T21:23:25.945Z,0.30
2023-05-06T21:25:52.180Z,0.28
2023-05-06T21:28:18.467Z,0.10
2023-05-06T21:30:44.837Z,0.25
2023-05-06T21:33:11.466Z,0.17
2023-05-06T21:35:37.832Z,0.30
2023-05-06T21:38:04.104Z,0.10
2023-05-06T21:40:30.452Z,0.10
2023-05-06T21:42:56.989Z,0.08
2023-05-06T21:45:23.294Z,0.10
2023-05-06T21:47:49.713Z,0.10
2023-05-06T21:50:16.189Z,0.60
2023-05-06T21:52:42.537Z,0.10
2023-05-06T21:55:09.129Z,0.20
2023-05-06T21:57:35.539Z,0.20
2023-05-06T22:00:01.968Z,0.20
2023-05-06T22:02:28.536Z,0.10
2023-05-06T22:04:54.971Z,0.10
2023-05-06T22:07:21.196Z,0.10
2023-05-06T22:09:47.487Z,0.10
2023-05-06T22:12:15.327Z,0.10
2023-05-06T22:14:41.991Z,0.20
2023-05-06T22:17:10.274Z,0.10
2023-05-06T22:19:38.303Z,0.10
2023-05-06T22:22:05.109Z,0.08
2023-05-06T22:24:31.389Z,0.05
2023-05-06T22:26:59.959Z,0.20
2023-05-06T22:29:26.241Z,0.10
2023-05-06T22:31:52.588Z,0.10
2023-05-06T22:34:18.912Z,0.03
2023-05-06T22:36:45.531Z,0.30
2023-05-06T22:39:11.823Z,0.15
2023-05-06T22:41:39.049Z,0.10
2023-05-06T22:44:05.389Z,0.20
2023-05-06T22:46:31.747Z,0.10
2023-05-06T22:48:58.374Z,0.03
2023-05-06T22:51:25.170Z,0.20
2023-05-06T22:53:51.538Z,0.08
2023-05-06T22:56:18.957Z,0.13
2023-05-06T22:58:45.307Z,0.10
2023-05-06T23:01:11.904Z,0.30
2023-05-06T23:03:38.299Z,0.08
2023-05-06T23:06:05.949Z,0.20
2023-05-06T23:08:32.350Z,0.22
2023-05-06T23:10:58.608Z,0.10
2023-05-06T23:13:24.916Z,0.10
2023-05-06T23:15:51.190Z,0.17
2023-05-06T23:18:17.732Z,0.10
2023-05-06T23:20:44.405Z,0.10
2023-05-06T23:23:10.782Z,0.60
2023-05-06T23:25:37.306Z,0.10
2023-05-06T23:28:03.747Z,0.20
2023-05-06T23:30:30.073Z,0.17
2023-05-06T23:32:56.432Z,0.17
2023-05-06T23:35:22.697Z,0.20
2023-05-06T23:37:49.028Z,0.00
2023-05-06T23:40:16.672Z,0.20
2023-05-06T23:42:42.959Z,0.13
2023-05-06T23:45:09.688Z,0.22
2023-05-06T23:47:36.201Z,0.20
2023-05-06T23:50:02.860Z,0.13
2023-05-06T23:52:29.097Z,0.10
2023-05-06T23:54:55.344Z,0.10
2023-05-06T23:57:21.694Z,0.10
2023-05-06T23:59:47.941Z,0.08
